sensor_id;sensor_type;location;lat;lon;timestamp;temperature;humidity
77100;SHT31;66602;48.922;2.414;2024-02-14T00:01:21;10.22;87.62
77100;SHT31;66602;48.922;2.414;2024-02-14T00:04:33;10.27;87.54
77100;SHT31;66602;48.922;2.414;2024-02-14T00:06:59;10.25;87.57
77100;SHT31;66602;48.922;2.414;2024-02-14T00:09:26;10.25;87.70
77100;SHT31;66602;48.922;2.414;2024-02-14T00:12:05;10.24;87.79
77100;SHT31;66602;48.922;2.414;2024-02-14T00:15:09;10.28;87.84
77100;SHT31;66602;48.922;2.414;2024-02-14T00:17:52;10.30;87.65
77100;SHT31;66602;48.922;2.414;2024-02-14T00:20:21;10.35;87.73
77100;SHT31;66602;48.922;2.414;2024-02-14T00:22:53;10.37;87.57
77100;SHT31;66602;48.922;2.414;2024-02-14T00:25:25;10.33;87.90
77100;SHT31;66602;48.922;2.414;2024-02-14T00:27:59;10.35;87.85
77100;SHT31;66602;48.922;2.414;2024-02-14T00:30:29;10.40;87.76
77100;SHT31;66602;48.922;2.414;2024-02-14T00:32:58;10.41;87.82
77100;SHT31;66602;48.922;2.414;2024-02-14T00:35:24;10.45;87.82
77100;SHT31;66602;48.922;2.414;2024-02-14T00:37:49;10.46;87.92
77100;SHT31;66602;48.922;2.414;2024-02-14T00:40:44;10.46;87.86
77100;SHT31;66602;48.922;2.414;2024-02-14T00:43:20;10.48;87.98
77100;SHT31;66602;48.922;2.414;2024-02-14T00:45:47;10.48;88.09
77100;SHT31;66602;48.922;2.414;2024-02-14T00:48:14;10.49;88.02
77100;SHT31;66602;48.922;2.414;2024-02-14T00:50:40;10.52;88.08
77100;SHT31;66602;48.922;2.414;2024-02-14T00:53:07;10.49;88.18
77100;SHT31;66602;48.922;2.414;2024-02-14T00:55:51;10.51;88.33
77100;SHT31;66602;48.922;2.414;2024-02-14T00:58:16;10.55;88.26
77100;SHT31;66602;48.922;2.414;2024-02-14T01:00:42;10.52;88.54
77100;SHT31;66602;48.922;2.414;2024-02-14T01:03:08;10.54;88.60
77100;SHT31;66602;48.922;2.414;2024-02-14T01:05:39;10.49;88.98
77100;SHT31;66602;48.922;2.414;2024-02-14T01:08:06;10.45;89.14
77100;SHT31;66602;48.922;2.414;2024-02-14T01:10:32;10.48;89.20
77100;SHT31;66602;48.922;2.414;2024-02-14T01:12:58;10.46;89.26
77100;SHT31;66602;48.922;2.414;2024-02-14T01:15:24;10.44;89.27
77100;SHT31;66602;48.922;2.414;2024-02-14T01:17:50;10.44;89.37
77100;SHT31;66602;48.922;2.414;2024-02-14T01:20:17;10.49;89.25
77100;SHT31;66602;48.922;2.414;2024-02-14T01:22:43;10.52;89.16
77100;SHT31;66602;48.922;2.414;2024-02-14T01:25:18;10.58;89.00
77100;SHT31;66602;48.922;2.414;2024-02-14T01:27:44;10.58;88.91
77100;SHT31;66602;48.922;2.414;2024-02-14T01:30:10;10.59;89.06
77100;SHT31;66602;48.922;2.414;2024-02-14T01:32:36;10.56;89.16
77100;SHT31;66602;48.922;2.414;2024-02-14T01:35:02;10.55;89.22
77100;SHT31;66602;48.922;2.414;2024-02-14T01:37:29;10.56;89.29
77100;SHT31;66602;48.922;2.414;2024-02-14T01:39:55;10.56;89.41
77100;SHT31;66602;48.922;2.414;2024-02-14T01:42:21;10.56;89.33
77100;SHT31;66602;48.922;2.414;2024-02-14T01:44:47;10.59;89.29
77100;SHT31;66602;48.922;2.414;2024-02-14T01:47:13;10.59;89.23
77100;SHT31;66602;48.922;2.414;2024-02-14T01:49:39;10.59;89.28
77100;SHT31;66602;48.922;2.414;2024-02-14T01:52:09;10.61;89.17
77100;SHT31;66602;48.922;2.414;2024-02-14T01:54:35;10.63;89.00
77100;SHT31;66602;48.922;2.414;2024-02-14T01:57:02;10.63;88.97
77100;SHT31;66602;48.922;2.414;2024-02-14T01:59:28;10.65;89.07
77100;SHT31;66602;48.922;2.414;2024-02-14T02:01:55;10.66;88.89
77100;SHT31;66602;48.922;2.414;2024-02-14T02:04:21;10.68;88.99
77100;SHT31;66602;48.922;2.414;2024-02-14T02:06:48;10.65;89.00
77100;SHT31;66602;48.922;2.414;2024-02-14T02:09:13;10.62;89.11
77100;SHT31;66602;48.922;2.414;2024-02-14T02:11:46;10.63;89.15
77100;SHT31;66602;48.922;2.414;2024-02-14T02:14:16;10.62;89.15
77100;SHT31;66602;48.922;2.414;2024-02-14T02:16:44;10.65;89.00
77100;SHT31;66602;48.922;2.414;2024-02-14T02:19:11;10.65;89.19
77100;SHT31;66602;48.922;2.414;2024-02-14T02:21:36;10.69;89.15
77100;SHT31;66602;48.922;2.414;2024-02-14T02:24:03;10.69;89.25
77100;SHT31;66602;48.922;2.414;2024-02-14T02:26:28;10.66;89.39
77100;SHT31;66602;48.922;2.414;2024-02-14T02:28:54;10.72;89.29
77100;SHT31;66602;48.922;2.414;2024-02-14T02:31:20;10.75;89.05
77100;SHT31;66602;48.922;2.414;2024-02-14T02:33:46;10.72;89.38
77100;SHT31;66602;48.922;2.414;2024-02-14T02:36:11;10.68;89.48
77100;SHT31;66602;48.922;2.414;2024-02-14T02:38:37;10.66;89.53
77100;SHT31;66602;48.922;2.414;2024-02-14T02:41:04;10.59;89.83
77100;SHT31;66602;48.922;2.414;2024-02-14T02:43:33;10.59;90.09
77100;SHT31;66602;48.922;2.414;2024-02-14T02:45:58;10.61;90.14
77100;SHT31;66602;48.922;2.414;2024-02-14T02:48:25;10.63;90.26
77100;SHT31;66602;48.922;2.414;2024-02-14T02:50:51;10.62;90.68
77100;SHT31;66602;48.922;2.414;2024-02-14T02:53:18;10.61;90.93
77100;SHT31;66602;48.922;2.414;2024-02-14T02:55:44;10.54;90.94
77100;SHT31;66602;48.922;2.414;2024-02-14T02:58:10;10.51;91.16
77100;SHT31;66602;48.922;2.414;2024-02-14T03:00:36;10.52;91.31
77100;SHT31;66602;48.922;2.414;2024-02-14T03:03:01;10.52;91.26
77100;SHT31;66602;48.922;2.414;2024-02-14T03:05:33;10.51;91.34
77100;SHT31;66602;48.922;2.414;2024-02-14T03:07:59;10.54;91.35
77100;SHT31;66602;48.922;2.414;2024-02-14T03:10:25;10.61;91.27
77100;SHT31;66602;48.922;2.414;2024-02-14T03:12:50;10.58;91.39
77100;SHT31;66602;48.922;2.414;2024-02-14T03:15:17;10.56;91.37
77100;SHT31;66602;48.922;2.414;2024-02-14T03:17:44;10.56;91.79
77100;SHT31;66602;48.922;2.414;2024-02-14T03:20:10;10.51;91.83
77100;SHT31;66602;48.922;2.414;2024-02-14T03:22:38;10.52;91.85
77100;SHT31;66602;48.922;2.414;2024-02-14T03:25:08;10.55;91.88
77100;SHT31;66602;48.922;2.414;2024-02-14T03:27:35;10.55;91.91
77100;SHT31;66602;48.922;2.414;2024-02-14T03:30:00;10.55;91.84
77100;SHT31;66602;48.922;2.414;2024-02-14T03:32:28;10.58;91.77
77100;SHT31;66602;48.922;2.414;2024-02-14T03:34:54;10.62;91.63
77100;SHT31;66602;48.922;2.414;2024-02-14T03:37:19;10.59;91.63
77100;SHT31;66602;48.922;2.414;2024-02-14T03:39:45;10.56;91.60
77100;SHT31;66602;48.922;2.414;2024-02-14T03:42:11;10.59;91.79
77100;SHT31;66602;48.922;2.414;2024-02-14T03:44:36;10.62;91.60
77100;SHT31;66602;48.922;2.414;2024-02-14T03:47:03;10.61;91.55
77100;SHT31;66602;48.922;2.414;2024-02-14T03:49:29;10.63;91.57
77100;SHT31;66602;48.922;2.414;2024-02-14T03:51:56;10.61;91.67
77100;SHT31;66602;48.922;2.414;2024-02-14T03:54:21;10.69;91.60
77100;SHT31;66602;48.922;2.414;2024-02-14T03:56:49;10.68;91.53
77100;SHT31;66602;48.922;2.414;2024-02-14T03:59:14;10.72;91.46
77100;SHT31;66602;48.922;2.414;2024-02-14T04:01:46;10.73;91.37
77100;SHT31;66602;48.922;2.414;2024-02-14T04:04:13;10.75;91.42
77100;SHT31;66602;48.922;2.414;2024-02-14T04:06:38;10.76;91.41
77100;SHT31;66602;48.922;2.414;2024-02-14T04:09:05;10.72;91.38
77100;SHT31;66602;48.922;2.414;2024-02-14T04:11:31;10.77;91.35
77100;SHT31;66602;48.922;2.414;2024-02-14T04:13:56;10.80;91.25
77100;SHT31;66602;48.922;2.414;2024-02-14T04:16:22;10.79;91.27
77100;SHT31;66602;48.922;2.414;2024-02-14T04:18:47;10.80;91.31
77100;SHT31;66602;48.922;2.414;2024-02-14T04:21:13;10.80;91.40
77100;SHT31;66602;48.922;2.414;2024-02-14T04:23:39;10.79;91.42
77100;SHT31;66602;48.922;2.414;2024-02-14T04:26:05;10.80;91.42
77100;SHT31;66602;48.922;2.414;2024-02-14T04:28:31;10.82;91.29
77100;SHT31;66602;48.922;2.414;2024-02-14T04:30:58;10.86;91.34
77100;SHT31;66602;48.922;2.414;2024-02-14T04:33:23;10.82;91.50
77100;SHT31;66602;48.922;2.414;2024-02-14T04:35:49;10.79;91.55
77100;SHT31;66602;48.922;2.414;2024-02-14T04:38:15;10.82;91.54
77100;SHT31;66602;48.922;2.414;2024-02-14T04:40:41;10.82;91.50
77100;SHT31;66602;48.922;2.414;2024-02-14T04:43:07;10.86;91.62
77100;SHT31;66602;48.922;2.414;2024-02-14T04:45:32;10.88;91.53
77100;SHT31;66602;48.922;2.414;2024-02-14T04:47:58;10.89;91.63
77100;SHT31;66602;48.922;2.414;2024-02-14T04:50:24;10.89;91.71
77100;SHT31;66602;48.922;2.414;2024-02-14T04:52:49;10.93;91.68
77100;SHT31;66602;48.922;2.414;2024-02-14T04:55:15;10.93;91.68
77100;SHT31;66602;48.922;2.414;2024-02-14T04:57:40;10.96;91.68
77100;SHT31;66602;48.922;2.414;2024-02-14T05:00:06;10.96;91.76
77100;SHT31;66602;48.922;2.414;2024-02-14T05:02:34;10.96;91.94
77100;SHT31;66602;48.922;2.414;2024-02-14T05:04:59;10.96;91.96
77100;SHT31;66602;48.922;2.414;2024-02-14T05:07:25;10.96;92.01
77100;SHT31;66602;48.922;2.414;2024-02-14T05:09:51;10.96;91.97
77100;SHT31;66602;48.922;2.414;2024-02-14T05:12:17;10.92;92.10
77100;SHT31;66602;48.922;2.414;2024-02-14T05:14:44;10.95;92.13
77100;SHT31;66602;48.922;2.414;2024-02-14T05:17:10;10.95;92.19
77100;SHT31;66602;48.922;2.414;2024-02-14T05:19:36;11.00;92.11
77100;SHT31;66602;48.922;2.414;2024-02-14T05:22:01;10.97;92.20
77100;SHT31;66602;48.922;2.414;2024-02-14T05:24:27;10.96;92.38
77100;SHT31;66602;48.922;2.414;2024-02-14T05:26:54;11.03;92.40
77100;SHT31;66602;48.922;2.414;2024-02-14T05:29:20;11.03;92.35
77100;SHT31;66602;48.922;2.414;2024-02-14T05:31:46;11.00;92.41
77100;SHT31;66602;48.922;2.414;2024-02-14T05:34:13;11.04;92.33
77100;SHT31;66602;48.922;2.414;2024-02-14T05:36:39;11.02;92.37
77100;SHT31;66602;48.922;2.414;2024-02-14T05:39:05;11.03;92.38
77100;SHT31;66602;48.922;2.414;2024-02-14T05:41:31;10.99;92.45
77100;SHT31;66602;48.922;2.414;2024-02-14T05:43:58;10.99;92.55
77100;SHT31;66602;48.922;2.414;2024-02-14T05:46:24;11.00;92.59
77100;SHT31;66602;48.922;2.414;2024-02-14T05:48:49;11.04;92.42
77100;SHT31;66602;48.922;2.414;2024-02-14T05:51:17;11.09;92.17
77100;SHT31;66602;48.922;2.414;2024-02-14T05:53:43;11.09;92.10
77100;SHT31;66602;48.922;2.414;2024-02-14T05:56:08;11.16;92.22
77100;SHT31;66602;48.922;2.414;2024-02-14T05:58:34;11.14;92.04
77100;SHT31;66602;48.922;2.414;2024-02-14T06:00:59;11.20;91.99
77100;SHT31;66602;48.922;2.414;2024-02-14T06:03:24;11.19;91.95
77100;SHT31;66602;48.922;2.414;2024-02-14T06:05:50;11.24;91.88
77100;SHT31;66602;48.922;2.414;2024-02-14T06:08:16;11.19;91.91
77100;SHT31;66602;48.922;2.414;2024-02-14T06:10:41;11.24;91.99
77100;SHT31;66602;48.922;2.414;2024-02-14T06:13:07;11.23;92.04
77100;SHT31;66602;48.922;2.414;2024-02-14T06:15:32;11.24;92.05
77100;SHT31;66602;48.922;2.414;2024-02-14T06:17:58;11.23;92.12
77100;SHT31;66602;48.922;2.414;2024-02-14T06:20:23;11.17;92.35
77100;SHT31;66602;48.922;2.414;2024-02-14T06:22:49;11.19;92.34
77100;SHT31;66602;48.922;2.414;2024-02-14T06:25:14;11.16;92.62
77100;SHT31;66602;48.922;2.414;2024-02-14T06:27:41;11.20;92.50
77100;SHT31;66602;48.922;2.414;2024-02-14T06:30:07;11.23;92.37
77100;SHT31;66602;48.922;2.414;2024-02-14T06:32:33;11.27;92.29
77100;SHT31;66602;48.922;2.414;2024-02-14T06:35:00;11.31;92.37
77100;SHT31;66602;48.922;2.414;2024-02-14T06:37:26;11.33;92.22
77100;SHT31;66602;48.922;2.414;2024-02-14T06:39:52;11.34;92.31
77100;SHT31;66602;48.922;2.414;2024-02-14T06:42:17;11.34;92.29
77100;SHT31;66602;48.922;2.414;2024-02-14T06:44:43;11.30;92.38
77100;SHT31;66602;48.922;2.414;2024-02-14T06:47:08;11.33;92.40
77100;SHT31;66602;48.922;2.414;2024-02-14T06:49:34;11.33;92.64
77100;SHT31;66602;48.922;2.414;2024-02-14T06:52:00;11.33;92.64
77100;SHT31;66602;48.922;2.414;2024-02-14T06:54:26;11.34;92.59
77100;SHT31;66602;48.922;2.414;2024-02-14T06:56:51;11.35;92.66
77100;SHT31;66602;48.922;2.414;2024-02-14T06:59:17;11.35;92.61
77100;SHT31;66602;48.922;2.414;2024-02-14T07:01:42;11.35;92.50
77100;SHT31;66602;48.922;2.414;2024-02-14T07:04:07;11.37;92.67
77100;SHT31;66602;48.922;2.414;2024-02-14T07:06:33;11.35;92.55
77100;SHT31;66602;48.922;2.414;2024-02-14T07:08:58;11.38;92.59
77100;SHT31;66602;48.922;2.414;2024-02-14T07:11:24;11.44;92.51
77100;SHT31;66602;48.922;2.414;2024-02-14T07:13:49;11.45;92.33
77100;SHT31;66602;48.922;2.414;2024-02-14T07:16:15;11.45;92.38
77100;SHT31;66602;48.922;2.414;2024-02-14T07:18:40;11.47;92.30
77100;SHT31;66602;48.922;2.414;2024-02-14T07:21:06;11.51;92.18
77100;SHT31;66602;48.922;2.414;2024-02-14T07:23:32;11.58;92.05
77100;SHT31;66602;48.922;2.414;2024-02-14T07:25:59;11.55;92.10
77100;SHT31;66602;48.922;2.414;2024-02-14T07:28:26;11.57;92.21
77100;SHT31;66602;48.922;2.414;2024-02-14T07:30:51;11.64;92.17
77100;SHT31;66602;48.922;2.414;2024-02-14T07:33:17;11.61;92.04
77100;SHT31;66602;48.922;2.414;2024-02-14T07:35:42;11.64;92.07
77100;SHT31;66602;48.922;2.414;2024-02-14T07:38:08;11.65;92.04
77100;SHT31;66602;48.922;2.414;2024-02-14T07:40:35;11.71;91.95
77100;SHT31;66602;48.922;2.414;2024-02-14T07:43:01;11.77;91.78
77100;SHT31;66602;48.922;2.414;2024-02-14T07:45:29;11.77;91.70
77100;SHT31;66602;48.922;2.414;2024-02-14T07:47:55;11.85;91.54
77100;SHT31;66602;48.922;2.414;2024-02-14T07:50:20;11.85;91.60
77100;SHT31;66602;48.922;2.414;2024-02-14T07:52:47;11.89;91.42
77100;SHT31;66602;48.922;2.414;2024-02-14T07:55:13;11.93;91.33
77100;SHT31;66602;48.922;2.414;2024-02-14T07:57:41;11.91;91.24
77100;SHT31;66602;48.922;2.414;2024-02-14T08:00:08;12.01;91.17
77100;SHT31;66602;48.922;2.414;2024-02-14T08:02:38;12.09;90.81
77100;SHT31;66602;48.922;2.414;2024-02-14T08:05:25;12.09;90.75
77100;SHT31;66602;48.922;2.414;2024-02-14T08:08:09;12.15;90.58
77100;SHT31;66602;48.922;2.414;2024-02-14T08:10:39;12.19;90.45
77100;SHT31;66602;48.922;2.414;2024-02-14T08:13:11;12.25;90.31
77100;SHT31;66602;48.922;2.414;2024-02-14T08:15:40;12.23;90.32
77100;SHT31;66602;48.922;2.414;2024-02-14T08:18:08;12.21;90.35
77100;SHT31;66602;48.922;2.414;2024-02-14T08:21:07;12.29;90.22
77100;SHT31;66602;48.922;2.414;2024-02-14T08:23:55;12.37;89.98
77100;SHT31;66602;48.922;2.414;2024-02-14T08:26:31;12.50;89.44
77100;SHT31;66602;48.922;2.414;2024-02-14T08:29:06;12.56;89.33
77100;SHT31;66602;48.922;2.414;2024-02-14T08:31:36;12.56;89.22
77100;SHT31;66602;48.922;2.414;2024-02-14T08:34:03;12.60;89.13
77100;SHT31;66602;48.922;2.414;2024-02-14T08:36:30;12.57;89.13
77100;SHT31;66602;48.922;2.414;2024-02-14T08:38:57;12.60;89.13
77100;SHT31;66602;48.922;2.414;2024-02-14T08:41:39;12.63;88.91
77100;SHT31;66602;48.922;2.414;2024-02-14T08:44:13;12.71;88.74
77100;SHT31;66602;48.922;2.414;2024-02-14T08:46:48;12.83;88.42
77100;SHT31;66602;48.922;2.414;2024-02-14T08:49:19;12.85;88.12
77100;SHT31;66602;48.922;2.414;2024-02-14T08:51:47;12.90;88.11
77100;SHT31;66602;48.922;2.414;2024-02-14T08:54:15;12.94;87.88
77100;SHT31;66602;48.922;2.414;2024-02-14T08:56:41;13.01;87.72
77100;SHT31;66602;48.922;2.414;2024-02-14T08:59:33;13.10;87.29
77100;SHT31;66602;48.922;2.414;2024-02-14T09:02:48;13.10;87.16
77100;SHT31;66602;48.922;2.414;2024-02-14T09:06:11;13.07;87.26
77100;SHT31;66602;48.922;2.414;2024-02-14T09:09:07;13.11;87.34
77100;SHT31;66602;48.922;2.414;2024-02-14T09:11:57;13.05;87.50
77100;SHT31;66602;48.922;2.414;2024-02-14T09:14:23;12.94;87.90
77100;SHT31;66602;48.922;2.414;2024-02-14T09:16:49;12.87;88.31
77100;SHT31;66602;48.922;2.414;2024-02-14T09:19:16;12.83;88.74
77100;SHT31;66602;48.922;2.414;2024-02-14T09:21:52;12.79;89.07
77100;SHT31;66602;48.922;2.414;2024-02-14T09:24:44;12.80;89.05
77100;SHT31;66602;48.922;2.414;2024-02-14T09:27:19;12.76;89.28
77100;SHT31;66602;48.922;2.414;2024-02-14T09:29:46;12.77;89.49
77100;SHT31;66602;48.922;2.414;2024-02-14T09:32:23;12.76;89.41
77100;SHT31;66602;48.922;2.414;2024-02-14T09:35:06;12.73;89.58
77100;SHT31;66602;48.922;2.414;2024-02-14T09:37:33;12.79;89.51
77100;SHT31;66602;48.922;2.414;2024-02-14T09:40:23;12.84;89.36
77100;SHT31;66602;48.922;2.414;2024-02-14T09:42:56;12.87;89.15
77100;SHT31;66602;48.922;2.414;2024-02-14T09:45:26;12.87;89.38
77100;SHT31;66602;48.922;2.414;2024-02-14T09:47:59;12.88;89.19
77100;SHT31;66602;48.922;2.414;2024-02-14T09:50:28;12.88;89.50
77100;SHT31;66602;48.922;2.414;2024-02-14T09:52:57;12.91;89.32
77100;SHT31;66602;48.922;2.414;2024-02-14T09:55:27;13.04;88.81
77100;SHT31;66602;48.922;2.414;2024-02-14T09:57:54;13.18;88.49
77100;SHT31;66602;48.922;2.414;2024-02-14T10:00:26;13.29;88.15
77100;SHT31;66602;48.922;2.414;2024-02-14T10:02:52;13.39;87.92
77100;SHT31;66602;48.922;2.414;2024-02-14T10:05:20;13.42;87.38
77100;SHT31;66602;48.922;2.414;2024-02-14T10:07:48;13.39;87.31
77100;SHT31;66602;48.922;2.414;2024-02-14T10:10:13;13.41;87.38
77100;SHT31;66602;48.922;2.414;2024-02-14T10:12:41;13.38;87.29
77100;SHT31;66602;48.922;2.414;2024-02-14T10:15:08;13.38;87.38
77100;SHT31;66602;48.922;2.414;2024-02-14T10:17:33;13.41;87.25
77100;SHT31;66602;48.922;2.414;2024-02-14T10:20:02;13.46;86.83
77100;SHT31;66602;48.922;2.414;2024-02-14T10:22:37;13.48;86.62
77100;SHT31;66602;48.922;2.414;2024-02-14T10:25:11;13.56;86.33
77100;SHT31;66602;48.922;2.414;2024-02-14T10:27:57;13.60;86.61
77100;SHT31;66602;48.922;2.414;2024-02-14T10:30:31;13.89;85.79
77100;SHT31;66602;48.922;2.414;2024-02-14T10:33:19;14.03;85.13
77100;SHT31;66602;48.922;2.414;2024-02-14T10:35:45;14.18;84.43
77100;SHT31;66602;48.922;2.414;2024-02-14T10:38:14;14.21;84.27
77100;SHT31;66602;48.922;2.414;2024-02-14T10:40:42;14.17;84.30
77100;SHT31;66602;48.922;2.414;2024-02-14T10:43:08;14.18;84.26
77100;SHT31;66602;48.922;2.414;2024-02-14T10:45:37;14.18;84.30
77100;SHT31;66602;48.922;2.414;2024-02-14T10:48:11;14.18;84.30
77100;SHT31;66602;48.922;2.414;2024-02-14T10:50:46;14.07;84.78
77100;SHT31;66602;48.922;2.414;2024-02-14T10:53:14;13.99;85.11
77100;SHT31;66602;48.922;2.414;2024-02-14T10:55:46;13.93;85.15
77100;SHT31;66602;48.922;2.414;2024-02-14T10:58:55;13.91;85.85
77100;SHT31;66602;48.922;2.414;2024-02-14T11:02:16;13.80;86.03
77100;SHT31;66602;48.922;2.414;2024-02-14T11:04:50;13.77;86.56
77100;SHT31;66602;48.922;2.414;2024-02-14T11:08:07;13.60;86.59
77100;SHT31;66602;48.922;2.414;2024-02-14T11:11:38;13.63;86.80
77100;SHT31;66602;48.922;2.414;2024-02-14T11:14:42;13.77;86.86
77100;SHT31;66602;48.922;2.414;2024-02-14T11:17:15;13.77;86.64
77100;SHT31;66602;48.922;2.414;2024-02-14T11:19:43;13.67;86.86
77100;SHT31;66602;48.922;2.414;2024-02-14T11:22:33;13.63;87.26
77100;SHT31;66602;48.922;2.414;2024-02-14T11:25:06;13.67;87.53
77100;SHT31;66602;48.922;2.414;2024-02-14T11:27:33;13.69;87.44
77100;SHT31;66602;48.922;2.414;2024-02-14T11:29:59;13.73;87.21
77100;SHT31;66602;48.922;2.414;2024-02-14T11:32:27;13.80;86.90
77100;SHT31;66602;48.922;2.414;2024-02-14T11:34:56;13.87;86.52
77100;SHT31;66602;48.922;2.414;2024-02-14T11:37:30;14.06;86.10
77100;SHT31;66602;48.922;2.414;2024-02-14T11:40:00;14.18;85.95
77100;SHT31;66602;48.922;2.414;2024-02-14T11:42:28;14.32;85.35
77100;SHT31;66602;48.922;2.414;2024-02-14T11:45:02;14.28;85.11
77100;SHT31;66602;48.922;2.414;2024-02-14T11:47:27;14.27;85.07
77100;SHT31;66602;48.922;2.414;2024-02-14T11:50:02;14.20;84.93
77100;SHT31;66602;48.922;2.414;2024-02-14T11:52:33;14.13;84.91
77100;SHT31;66602;48.922;2.414;2024-02-14T11:55:07;14.07;85.97
77100;SHT31;66602;48.922;2.414;2024-02-14T11:57:35;13.93;86.31
77100;SHT31;66602;48.922;2.414;2024-02-14T12:00:03;13.80;86.30
77100;SHT31;66602;48.922;2.414;2024-02-14T12:02:30;13.72;87.37
77100;SHT31;66602;48.922;2.414;2024-02-14T12:04:59;13.65;87.57
77100;SHT31;66602;48.922;2.414;2024-02-14T12:07:25;13.66;87.73
77100;SHT31;66602;48.922;2.414;2024-02-14T12:09:52;13.67;87.46
77100;SHT31;66602;48.922;2.414;2024-02-14T12:12:20;13.67;87.75
77100;SHT31;66602;48.922;2.414;2024-02-14T12:14:51;13.60;88.01
77100;SHT31;66602;48.922;2.414;2024-02-14T12:17:17;13.70;88.19
77100;SHT31;66602;48.922;2.414;2024-02-14T12:19:47;13.74;87.48
77100;SHT31;66602;48.922;2.414;2024-02-14T12:22:16;13.89;86.97
77100;SHT31;66602;48.922;2.414;2024-02-14T12:24:47;14.11;86.39
77100;SHT31;66602;48.922;2.414;2024-02-14T12:27:17;14.27;86.34
77100;SHT31;66602;48.922;2.414;2024-02-14T12:29:46;14.48;85.27
77100;SHT31;66602;48.922;2.414;2024-02-14T12:32:16;14.38;85.26
77100;SHT31;66602;48.922;2.414;2024-02-14T12:34:44;14.27;85.76
77100;SHT31;66602;48.922;2.414;2024-02-14T12:37:14;14.03;86.72
77100;SHT31;66602;48.922;2.414;2024-02-14T12:39:42;14.06;86.40
77100;SHT31;66602;48.922;2.414;2024-02-14T12:42:08;14.16;86.03
77100;SHT31;66602;48.922;2.414;2024-02-14T12:44:34;14.31;85.73
77100;SHT31;66602;48.922;2.414;2024-02-14T12:47:00;14.20;85.30
77100;SHT31;66602;48.922;2.414;2024-02-14T12:49:26;14.17;85.48
77100;SHT31;66602;48.922;2.414;2024-02-14T12:51:53;14.35;85.46
77100;SHT31;66602;48.922;2.414;2024-02-14T12:54:18;14.52;84.20
77100;SHT31;66602;48.922;2.414;2024-02-14T12:56:44;14.75;83.82
77100;SHT31;66602;48.922;2.414;2024-02-14T12:59:17;14.99;82.88
77100;SHT31;66602;48.922;2.414;2024-02-14T13:01:43;15.11;82.43
77100;SHT31;66602;48.922;2.414;2024-02-14T13:04:09;15.13;82.20
77100;SHT31;66602;48.922;2.414;2024-02-14T13:06:35;15.33;81.54
77100;SHT31;66602;48.922;2.414;2024-02-14T13:09:03;15.70;81.27
77100;SHT31;66602;48.922;2.414;2024-02-14T13:11:31;15.75;80.18
77100;SHT31;66602;48.922;2.414;2024-02-14T13:13:57;15.48;80.82
77100;SHT31;66602;48.922;2.414;2024-02-14T13:16:23;15.48;80.90
77100;SHT31;66602;48.922;2.414;2024-02-14T13:18:49;15.72;80.60
77100;SHT31;66602;48.922;2.414;2024-02-14T13:21:15;16.01;79.86
77100;SHT31;66602;48.922;2.414;2024-02-14T13:23:44;16.01;79.11
77100;SHT31;66602;48.922;2.414;2024-02-14T13:26:09;16.43;77.77
77100;SHT31;66602;48.922;2.414;2024-02-14T13:28:36;16.39;77.90
77100;SHT31;66602;48.922;2.414;2024-02-14T13:31:02;16.18;78.54
77100;SHT31;66602;48.922;2.414;2024-02-14T13:33:29;15.85;78.52
77100;SHT31;66602;48.922;2.414;2024-02-14T13:35:54;15.40;80.13
77100;SHT31;66602;48.922;2.414;2024-02-14T13:38:22;15.29;81.36
77100;SHT31;66602;48.922;2.414;2024-02-14T13:40:48;15.24;80.94
77100;SHT31;66602;48.922;2.414;2024-02-14T13:43:14;15.30;80.84
77100;SHT31;66602;48.922;2.414;2024-02-14T13:45:44;15.22;80.73
77100;SHT31;66602;48.922;2.414;2024-02-14T13:48:13;15.29;80.50
77100;SHT31;66602;48.922;2.414;2024-02-14T13:50:39;16.06;78.49
77100;SHT31;66602;48.922;2.414;2024-02-14T13:53:11;16.55;76.30
77100;SHT31;66602;48.922;2.414;2024-02-14T13:55:37;16.34;75.83
77100;SHT31;66602;48.922;2.414;2024-02-14T13:58:03;16.88;74.71
77100;SHT31;66602;48.922;2.414;2024-02-14T14:00:28;17.01;73.67
77100;SHT31;66602;48.922;2.414;2024-02-14T14:02:55;17.72;71.69
77100;SHT31;66602;48.922;2.414;2024-02-14T14:05:23;17.38;72.54
77100;SHT31;66602;48.922;2.414;2024-02-14T14:07:49;16.55;74.78
77100;SHT31;66602;48.922;2.414;2024-02-14T14:10:14;16.09;76.47
77100;SHT31;66602;48.922;2.414;2024-02-14T14:12:40;15.77;77.36
77100;SHT31;66602;48.922;2.414;2024-02-14T14:15:08;15.68;77.60
77100;SHT31;66602;48.922;2.414;2024-02-14T14:17:36;15.84;77.56
77100;SHT31;66602;48.922;2.414;2024-02-14T14:20:02;15.91;76.98
77100;SHT31;66602;48.922;2.414;2024-02-14T14:22:30;15.81;76.87
77100;SHT31;66602;48.922;2.414;2024-02-14T14:24:59;15.91;76.90
77100;SHT31;66602;48.922;2.414;2024-02-14T14:27:27;15.97;76.65
77100;SHT31;66602;48.922;2.414;2024-02-14T14:29:54;15.94;76.52
77100;SHT31;66602;48.922;2.414;2024-02-14T14:32:21;15.97;76.87
77100;SHT31;66602;48.922;2.414;2024-02-14T14:34:47;16.04;76.71
77100;SHT31;66602;48.922;2.414;2024-02-14T14:37:13;16.73;75.53
77100;SHT31;66602;48.922;2.414;2024-02-14T14:39:39;17.68;71.99
77100;SHT31;66602;48.922;2.414;2024-02-14T14:42:07;17.15;72.89
77100;SHT31;66602;48.922;2.414;2024-02-14T14:44:44;17.72;71.44
77100;SHT31;66602;48.922;2.414;2024-02-14T14:47:09;18.07;70.19
77100;SHT31;66602;48.922;2.414;2024-02-14T14:49:36;17.75;70.73
77100;SHT31;66602;48.922;2.414;2024-02-14T14:52:05;18.23;69.75
77100;SHT31;66602;48.922;2.414;2024-02-14T14:54:33;18.48;69.23
77100;SHT31;66602;48.922;2.414;2024-02-14T14:57:05;17.90;70.02
77100;SHT31;66602;48.922;2.414;2024-02-14T14:59:38;17.46;71.49
77100;SHT31;66602;48.922;2.414;2024-02-14T15:02:04;17.06;72.52
77100;SHT31;66602;48.922;2.414;2024-02-14T15:04:35;16.64;73.85
77100;SHT31;66602;48.922;2.414;2024-02-14T15:07:05;16.61;74.31
77100;SHT31;66602;48.922;2.414;2024-02-14T15:09:31;16.46;74.90
77100;SHT31;66602;48.922;2.414;2024-02-14T15:11:57;16.30;75.19
77100;SHT31;66602;48.922;2.414;2024-02-14T15:14:23;16.28;75.58
77100;SHT31;66602;48.922;2.414;2024-02-14T15:16:49;16.34;74.99
77100;SHT31;66602;48.922;2.414;2024-02-14T15:19:19;16.30;75.46
77100;SHT31;66602;48.922;2.414;2024-02-14T15:21:46;16.19;75.62
77100;SHT31;66602;48.922;2.414;2024-02-14T15:24:13;16.04;76.35
77100;SHT31;66602;48.922;2.414;2024-02-14T15:26:40;15.89;76.63
77100;SHT31;66602;48.922;2.414;2024-02-14T15:29:25;15.82;76.84
77100;SHT31;66602;48.922;2.414;2024-02-14T15:32:12;15.68;77.76
77100;SHT31;66602;48.922;2.414;2024-02-14T15:34:58;15.64;77.93
77100;SHT31;66602;48.922;2.414;2024-02-14T15:37:24;15.60;77.79
77100;SHT31;66602;48.922;2.414;2024-02-14T15:40:27;15.62;77.99
77100;SHT31;66602;48.922;2.414;2024-02-14T15:43:32;15.61;78.09
77100;SHT31;66602;48.922;2.414;2024-02-14T15:45:59;15.53;78.37